createdAt,value
2023-04-14T00:02:24.883Z,9.70
2023-04-14T00:04:53.716Z,9.70
2023-04-14T00:07:21.574Z,9.70
2023-04-14T00:09:48.944Z,9.60
2023-04-14T00:12:16.065Z,9.60
2023-04-14T00:14:43.734Z,9.60
2023-04-14T00:17:11.660Z,10.00
2023-04-14T00:19:39.225Z,9.60
2023-04-14T00:22:06.554Z,9.70
2023-04-14T00:24:40.750Z,9.60
2023-04-14T00:27:07.933Z,9.60
2023-04-14T00:29:35.750Z,9.50
2023-04-14T00:32:03.254Z,9.70
2023-04-14T00:34:32.978Z,9.50
2023-04-14T00:37:00.318Z,9.50
2023-04-14T00:39:30.265Z,9.50
2023-04-14T00:41:57.384Z,10.80
2023-04-14T00:44:26.755Z,9.50
2023-04-14T00:46:54.663Z,9.40
2023-04-14T00:49:22.071Z,9.50
2023-04-14T00:51:50.135Z,9.50
2023-04-14T00:54:20.068Z,9.40
2023-04-14T00:56:47.736Z,9.40
2023-04-14T00:59:17.084Z,9.50
2023-04-14T01:01:44.364Z,9.60
2023-04-14T01:04:12.487Z,9.50
2023-04-14T01:06:39.608Z,9.60
2023-04-14T01:09:09.392Z,9.50
2023-04-14T01:12:13.119Z,9.60
2023-04-14T01:15:03.249Z,9.50
2023-04-14T01:17:39.471Z,9.50
2023-04-14T01:20:14.932Z,9.50
2023-04-14T01:22:52.370Z,9.50
2023-04-14T01:25:31.970Z,9.50
2023-04-14T01:28:32.595Z,9.50
2023-04-14T01:31:23.986Z,9.50
2023-04-14T01:34:17.453Z,9.40
2023-04-14T01:36:52.293Z,9.40
2023-04-14T01:39:23.040Z,10.60
2023-04-14T01:41:56.464Z,9.30
2023-04-14T01:44:24.525Z,9.40
2023-04-14T01:46:55.169Z,9.20
2023-04-14T01:49:23.450Z,9.20
2023-04-14T01:51:52.615Z,9.20
2023-04-14T01:54:22.419Z,9.10
2023-04-14T01:56:52.375Z,10.40
2023-04-14T01:59:21.949Z,9.00
2023-04-14T02:01:51.427Z,9.00
2023-04-14T02:04:26.002Z,9.00
2023-04-14T02:06:55.408Z,9.40
2023-04-14T02:09:24.909Z,8.80
2023-04-14T02:11:54.551Z,8.80
2023-04-14T02:14:23.768Z,8.80
2023-04-14T02:16:52.746Z,10.60
2023-04-14T02:19:21.764Z,9.00
2023-04-14T02:21:51.607Z,8.80
2023-04-14T02:24:19.431Z,8.80
2023-04-14T02:27:11.645Z,8.80
2023-04-14T02:29:42.507Z,8.70
2023-04-14T02:32:19.986Z,8.70
2023-04-14T02:35:03.383Z,8.90
2023-04-14T02:37:37.764Z,9.60
2023-04-14T02:40:14.190Z,8.80
2023-04-14T02:42:48.225Z,8.80
2023-04-14T02:45:22.659Z,8.70
2023-04-14T02:47:55.527Z,8.80
2023-04-14T02:50:24.154Z,10.60
2023-04-14T02:53:03.685Z,8.70
2023-04-14T02:55:37.104Z,8.70
2023-04-14T02:58:05.239Z,8.80
2023-04-14T03:00:38.244Z,8.70
2023-04-14T03:03:06.848Z,8.70
2023-04-14T03:08:12.243Z,8.70
2023-04-14T03:10:44.767Z,9.50
2023-04-14T03:13:14.436Z,8.60
2023-04-14T03:15:44.488Z,8.70
2023-04-14T03:18:14.467Z,8.70
2023-04-14T03:20:45.349Z,8.60
2023-04-14T03:23:15.656Z,8.60
2023-04-14T03:25:50.437Z,8.60
2023-04-14T03:28:28.564Z,9.10
2023-04-14T03:31:01.461Z,8.70
2023-04-14T03:33:36.042Z,8.70
2023-04-14T03:36:04.739Z,8.60
2023-04-14T03:38:34.646Z,8.60
2023-04-14T03:41:06.337Z,8.60
2023-04-14T03:43:34.618Z,8.60
2023-04-14T03:46:06.718Z,8.60
2023-04-14T03:48:42.470Z,8.60
2023-04-14T03:51:13.966Z,8.60
2023-04-14T03:53:44.706Z,9.20
2023-04-14T03:56:16.207Z,8.50
2023-04-14T03:58:50.878Z,9.40
2023-04-14T04:01:19.770Z,8.60
2023-04-14T04:03:48.844Z,8.60
2023-04-14T04:06:16.632Z,8.60
2023-04-14T04:08:47.353Z,8.60
2023-04-14T04:11:18.975Z,9.90
2023-04-14T04:13:49.269Z,8.60
2023-04-14T04:16:17.479Z,8.60
2023-04-14T04:18:48.470Z,8.70
2023-04-14T04:21:20.586Z,8.70
2023-04-14T04:23:54.464Z,8.80
2023-04-14T04:26:25.305Z,8.70
2023-04-14T04:28:58.186Z,8.80
2023-04-14T04:31:28.604Z,8.80
2023-04-14T04:33:58.249Z,8.80
2023-04-14T04:36:31.771Z,8.80
2023-04-14T04:38:59.806Z,8.90
2023-04-14T04:41:30.455Z,8.90
2023-04-14T04:44:01.728Z,10.30
2023-04-14T04:46:56.452Z,8.90
2023-04-14T04:49:28.913Z,8.90
2023-04-14T04:52:01.830Z,8.20
2023-04-14T04:54:29.318Z,8.90
2023-04-14T04:56:57.714Z,9.70
2023-04-14T04:59:25.622Z,9.00
2023-04-14T05:01:52.882Z,8.90
2023-04-14T05:04:20.531Z,9.00
2023-04-14T05:06:47.758Z,9.00
2023-04-14T05:09:15.452Z,9.00
2023-04-14T05:11:42.595Z,9.00
2023-04-14T05:14:09.989Z,9.00
2023-04-14T05:16:37.110Z,9.00
2023-04-14T05:19:04.665Z,9.00
2023-04-14T05:21:31.923Z,9.00
2023-04-14T05:24:00.463Z,9.10
2023-04-14T05:26:48.921Z,9.10
2023-04-14T05:29:15.012Z,9.20
2023-04-14T05:31:42.246Z,9.30
2023-04-14T05:34:09.642Z,9.30
2023-04-14T05:36:36.796Z,10.70
2023-04-14T05:39:04.205Z,9.40
2023-04-14T05:41:32.187Z,9.50
2023-04-14T05:44:06.851Z,9.70
2023-04-14T05:49:02.165Z,9.80
2023-04-14T05:51:29.535Z,9.90
2023-04-14T05:53:57.147Z,10.70
2023-04-14T05:56:24.284Z,12.20
2023-04-14T05:58:54.372Z,11.90
2023-04-14T06:01:21.475Z,10.20
2023-04-14T06:03:49.115Z,10.10
2023-04-14T06:06:16.538Z,10.20
2023-04-14T06:08:43.894Z,11.90
2023-04-14T06:11:11.312Z,10.10
2023-04-14T06:16:06.585Z,10.20
2023-04-14T06:18:34.073Z,10.20
2023-04-14T06:21:02.299Z,10.30
2023-04-14T06:23:31.454Z,10.30
2023-04-14T06:25:58.912Z,10.40
2023-04-14T06:28:27.202Z,10.40
2023-04-14T06:30:54.335Z,10.60
2023-04-14T06:33:21.887Z,10.90
2023-04-14T06:35:49.124Z,11.10
2023-04-14T06:38:16.606Z,11.30
2023-04-14T06:40:44.209Z,11.70
2023-04-14T06:43:11.640Z,11.70
2023-04-14T06:45:39.163Z,11.80
2023-04-14T06:48:08.027Z,12.20
2023-04-14T06:50:35.227Z,12.10
2023-04-14T06:53:02.975Z,12.00
2023-04-14T06:55:30.024Z,12.00
2023-04-14T06:57:57.359Z,12.20
2023-04-14T07:00:24.485Z,12.10
2023-04-14T07:02:52.102Z,12.20
2023-04-14T07:05:19.790Z,12.30
2023-04-14T07:07:47.245Z,12.80
2023-04-14T07:10:14.411Z,12.60
2023-04-14T07:12:41.866Z,13.50
2023-04-14T07:15:09.636Z,14.60
2023-04-14T07:17:37.147Z,14.20
2023-04-14T07:20:05.396Z,14.00
2023-04-14T07:22:33.323Z,14.30
2023-04-14T07:25:00.599Z,13.50
2023-04-14T07:27:28.876Z,14.30
2023-04-14T07:32:24.457Z,14.30
2023-04-14T07:34:51.612Z,13.70
2023-04-14T07:37:19.318Z,14.00
2023-04-14T07:39:46.678Z,14.10
2023-04-14T07:42:14.003Z,14.30
2023-04-14T07:44:41.430Z,14.30
2023-04-14T07:47:08.947Z,14.10
2023-04-14T07:49:36.576Z,14.90
2023-04-14T07:52:04.430Z,14.50
2023-04-14T07:54:31.829Z,15.00
2023-04-14T07:56:59.274Z,16.30
2023-04-14T08:01:54.550Z,16.40
2023-04-14T08:04:22.163Z,18.60
2023-04-14T08:14:12.336Z,19.80
2023-04-14T08:19:07.981Z,20.20
2023-04-14T08:21:35.618Z,20.10
2023-04-14T08:24:02.805Z,20.10
2023-04-14T08:28:57.670Z,20.70
2023-04-14T08:31:25.790Z,20.40
2023-04-14T08:33:53.269Z,20.40
2023-04-14T08:36:21.152Z,20.90
2023-04-14T08:38:48.421Z,21.40
2023-04-14T08:41:19.554Z,22.40
2023-04-14T08:43:47.093Z,22.50
2023-04-14T08:46:16.133Z,21.90
2023-04-14T08:48:47.700Z,21.90
2023-04-14T08:51:21.523Z,21.70
2023-04-14T08:53:49.034Z,21.50
2023-04-14T08:56:18.924Z,21.10
2023-04-14T08:58:47.500Z,21.30
2023-04-14T09:01:15.606Z,21.90
2023-04-14T09:03:44.215Z,21.60
2023-04-14T09:06:12.832Z,21.00
2023-04-14T09:08:40.175Z,20.70
2023-04-14T09:11:07.902Z,21.10
2023-04-14T09:13:36.613Z,21.30
2023-04-14T09:16:14.926Z,21.40
2023-04-14T09:18:42.367Z,21.70
2023-04-14T09:21:49.649Z,22.20
2023-04-14T09:23:59.138Z,22.50
2023-04-14T09:26:27.685Z,22.60
2023-04-14T09:28:54.813Z,22.50
2023-04-14T09:31:22.642Z,22.90
2023-04-14T09:33:51.022Z,23.30
2023-04-14T09:36:26.809Z,22.80
2023-04-14T09:38:54.174Z,22.80
2023-04-14T09:41:23.345Z,22.30
2023-04-14T09:43:50.914Z,22.10
2023-04-14T09:46:18.727Z,22.30
2023-04-14T09:48:52.888Z,22.00
2023-04-14T09:51:38.761Z,21.40
2023-04-14T09:54:06.387Z,21.50
2023-04-14T09:56:34.127Z,21.80
2023-04-14T09:59:02.655Z,22.10
2023-04-14T10:01:32.538Z,22.10
2023-04-14T10:04:02.045Z,21.40
2023-04-14T10:06:31.421Z,22.00
2023-04-14T10:08:59.190Z,22.40
2023-04-14T10:11:29.740Z,22.30
2023-04-14T10:14:07.491Z,22.70
2023-04-14T10:16:35.157Z,23.30
2023-04-14T10:19:03.734Z,23.40
2023-04-14T10:21:32.038Z,23.20
2023-04-14T10:23:59.377Z,23.40
2023-04-14T10:26:27.390Z,23.00
2023-04-14T10:28:56.374Z,23.20
2023-04-14T10:31:40.152Z,23.10
2023-04-14T10:34:09.354Z,23.60
2023-04-14T10:36:39.702Z,24.30
2023-04-14T10:41:43.915Z,25.30
2023-04-14T10:44:37.083Z,25.10
2023-04-14T10:47:08.392Z,25.40
2023-04-14T10:49:37.709Z,24.80
2023-04-14T10:52:12.710Z,25.00
2023-04-14T10:55:01.536Z,24.60
2023-04-14T10:57:30.060Z,24.60
2023-04-14T10:59:59.072Z,24.20
2023-04-14T11:02:30.910Z,24.20
2023-04-14T11:05:10.601Z,23.90
2023-04-14T11:07:44.746Z,22.70
2023-04-14T11:10:18.141Z,22.60
2023-04-14T11:12:47.025Z,22.60
2023-04-14T11:15:15.299Z,22.30
2023-04-14T11:17:43.801Z,22.70
2023-04-14T11:20:17.634Z,21.70
2023-04-14T11:22:47.393Z,21.80
2023-04-14T11:25:16.915Z,21.80
2023-04-14T11:27:45.300Z,22.00
2023-04-14T11:30:17.407Z,21.80
2023-04-14T11:32:57.718Z,22.00
2023-04-14T11:35:27.962Z,21.90
2023-04-14T11:37:56.765Z,21.80
2023-04-14T11:40:25.230Z,22.30
2023-04-14T11:42:58.032Z,22.40
2023-04-14T11:45:29.848Z,22.80
2023-04-14T11:48:05.921Z,23.60
2023-04-14T11:50:39.209Z,23.60
2023-04-14T11:53:12.252Z,22.30
2023-04-14T11:55:45.604Z,23.00
2023-04-14T11:58:14.108Z,23.20
2023-04-14T12:00:41.827Z,23.80
2023-04-14T12:03:09.543Z,23.60
2023-04-14T12:05:37.888Z,23.60
2023-04-14T12:08:09.571Z,23.90
2023-04-14T12:10:42.162Z,23.40
2023-04-14T12:13:11.434Z,24.20
2023-04-14T12:15:40.774Z,24.10
2023-04-14T12:18:10.443Z,24.00
2023-04-14T12:21:01.338Z,24.30
2023-04-14T12:23:28.969Z,23.80
2023-04-14T12:25:56.228Z,23.40
2023-04-14T12:28:29.931Z,22.40
2023-04-14T12:31:02.618Z,22.40
2023-04-14T12:33:31.648Z,22.80
2023-04-14T12:36:23.858Z,23.50
2023-04-14T12:38:53.742Z,24.10
2023-04-14T12:41:24.395Z,23.90
2023-04-14T12:43:51.875Z,23.20
2023-04-14T12:46:28.103Z,23.10
2023-04-14T12:48:55.813Z,23.40
2023-04-14T12:51:22.848Z,23.60
2023-04-14T12:53:51.350Z,24.20
2023-04-14T12:56:22.218Z,24.30
2023-04-14T12:58:51.336Z,22.80
2023-04-14T13:01:20.878Z,22.40
2023-04-14T13:03:56.083Z,21.90
2023-04-14T13:06:24.654Z,22.30
2023-04-14T13:08:53.566Z,23.10
2023-04-14T13:11:23.621Z,23.30
2023-04-14T13:13:54.267Z,23.60
2023-04-14T13:16:22.291Z,22.50
2023-04-14T13:18:50.118Z,21.40
2023-04-14T13:21:17.305Z,21.20
2023-04-14T13:23:45.395Z,20.70
2023-04-14T13:26:12.662Z,20.50
2023-04-14T13:28:40.326Z,20.80
2023-04-14T13:31:07.901Z,20.90
2023-04-14T13:33:35.650Z,20.90
2023-04-14T13:36:03.399Z,21.20
2023-04-14T13:38:31.424Z,20.90
2023-04-14T13:40:58.562Z,20.80
2023-04-14T13:43:26.453Z,20.70
2023-04-14T13:45:58.439Z,20.80
2023-04-14T13:48:31.213Z,20.50
2023-04-14T13:50:59.641Z,20.20
2023-04-14T13:53:27.278Z,20.30
2023-04-14T13:55:54.437Z,20.50
2023-04-14T14:08:15.891Z,20.00
2023-04-14T14:10:43.680Z,20.50
2023-04-14T14:13:11.035Z,20.20
2023-04-14T14:20:34.840Z,19.30
2023-04-14T14:23:02.352Z,18.70
2023-04-14T14:25:29.951Z,18.90
2023-04-14T14:27:58.066Z,18.40
2023-04-14T14:30:25.290Z,18.10
2023-04-14T14:32:52.984Z,18.30
2023-04-14T14:35:20.217Z,18.80
2023-04-14T14:37:48.465Z,19.60
2023-04-14T14:40:15.605Z,20.20
2023-04-14T14:42:44.050Z,20.30
2023-04-14T14:45:11.818Z,20.10
2023-04-14T14:47:39.920Z,19.30
2023-04-14T14:50:08.724Z,19.10
2023-04-14T14:52:36.659Z,19.00
2023-04-14T14:55:04.781Z,19.30
2023-04-14T14:57:32.339Z,19.00
2023-04-14T14:59:59.725Z,18.60
2023-04-14T15:02:27.764Z,18.60
2023-04-14T15:04:55.807Z,18.60
2023-04-14T15:07:23.710Z,18.70
2023-04-14T15:09:51.184Z,18.60
2023-04-14T15:12:19.399Z,18.20
2023-04-14T15:14:46.856Z,18.00
2023-04-14T15:17:14.692Z,17.80
2023-04-14T15:19:43.131Z,17.70
2023-04-14T15:22:11.091Z,17.40
2023-04-14T15:24:38.572Z,17.30
2023-04-14T15:27:06.621Z,17.30
2023-04-14T15:29:34.134Z,17.30
2023-04-14T15:32:02.317Z,17.20
2023-04-14T15:34:30.078Z,17.20
2023-04-14T15:36:57.740Z,17.20
2023-04-14T15:39:25.125Z,17.20
2023-04-14T15:41:53.151Z,17.20
2023-04-14T15:44:20.907Z,17.40
2023-04-14T15:46:50.676Z,17.30
2023-04-14T15:49:18.370Z,17.30
2023-04-14T15:51:46.604Z,17.10
2023-04-14T15:54:15.976Z,17.10
2023-04-14T15:56:44.236Z,17.00
2023-04-14T15:59:12.618Z,16.90
2023-04-14T16:01:40.224Z,16.90
2023-04-14T16:04:08.450Z,16.80
2023-04-14T16:06:36.923Z,16.90
2023-04-14T16:09:05.142Z,16.90
2023-04-14T16:11:34.064Z,16.90
2023-04-14T16:14:02.052Z,16.80
2023-04-14T16:16:30.342Z,16.80
2023-04-14T16:18:58.669Z,16.80
2023-04-14T16:21:26.938Z,16.80
2023-04-14T16:23:54.505Z,16.80
2023-04-14T16:26:24.237Z,16.70
2023-04-14T16:28:52.761Z,16.70
2023-04-14T16:31:21.002Z,16.60
2023-04-14T16:33:48.992Z,16.50
2023-04-14T16:36:16.964Z,16.50
2023-04-14T16:38:44.677Z,16.50
2023-04-14T16:41:12.536Z,16.40
2023-04-14T16:43:39.848Z,16.30
2023-04-14T16:46:08.464Z,16.30
2023-04-14T16:48:37.140Z,16.40
2023-04-14T16:51:06.380Z,16.40
2023-04-14T16:53:37.781Z,16.40
2023-04-14T16:56:06.500Z,16.30
2023-04-14T16:58:34.420Z,16.30
2023-04-14T17:01:03.424Z,16.20
2023-04-14T17:03:31.184Z,16.20
2023-04-14T17:05:59.028Z,16.10
2023-04-14T17:08:26.702Z,16.00
2023-04-14T17:10:54.211Z,16.00
2023-04-14T17:13:21.673Z,15.90
2023-04-14T17:15:58.915Z,15.90
2023-04-14T17:18:35.654Z,15.70
2023-04-14T17:21:04.622Z,15.70
2023-04-14T17:23:34.656Z,15.60
2023-04-14T17:26:02.253Z,15.60
2023-04-14T17:28:29.822Z,15.60
2023-04-14T17:30:57.587Z,15.50
2023-04-14T17:33:27.445Z,15.50
2023-04-14T17:35:55.629Z,15.50
2023-04-14T17:38:23.630Z,15.40
2023-04-14T17:40:53.643Z,15.20
2023-04-14T17:43:21.547Z,15.20
2023-04-14T17:45:50.734Z,15.10
2023-04-14T17:48:18.426Z,15.10
2023-04-14T17:50:46.655Z,15.00
2023-04-14T17:53:16.454Z,15.00
2023-04-14T17:55:44.997Z,14.90
2023-04-14T17:58:12.511Z,14.90
2023-04-14T18:00:40.556Z,14.80
2023-04-14T18:03:08.462Z,14.80
2023-04-14T18:05:36.686Z,14.70
2023-04-14T18:08:05.592Z,14.60
2023-04-14T18:10:34.970Z,14.40
2023-04-14T18:13:02.771Z,14.40
2023-04-14T18:15:31.054Z,14.30
2023-04-14T18:17:58.631Z,14.20
2023-04-14T18:20:26.766Z,14.10
2023-04-14T18:22:54.936Z,14.00
2023-04-14T18:25:23.031Z,14.00
2023-04-14T18:30:22.279Z,13.90
2023-04-14T18:32:49.976Z,13.80
2023-04-14T18:35:18.690Z,13.80
2023-04-14T18:37:47.005Z,13.70
2023-04-14T18:40:15.149Z,13.70
2023-04-14T18:42:43.232Z,13.70
2023-04-14T18:45:13.046Z,13.60
2023-04-14T18:47:40.815Z,13.60
2023-04-14T18:50:09.803Z,13.60
2023-04-14T18:52:37.482Z,13.50
2023-04-14T18:55:05.945Z,13.50
2023-04-14T18:57:33.445Z,13.40
2023-04-14T19:00:01.275Z,13.40
2023-04-14T19:02:29.353Z,13.30
2023-04-14T19:04:57.955Z,13.30
2023-04-14T19:07:26.906Z,13.20
2023-04-14T19:09:55.255Z,13.20
2023-04-14T19:12:28.551Z,13.10
2023-04-14T19:14:57.444Z,13.00
2023-04-14T19:17:25.225Z,12.90
2023-04-14T19:19:53.538Z,13.00
2023-04-14T19:22:21.042Z,12.80
2023-04-14T19:24:50.169Z,12.80
2023-04-14T19:27:19.006Z,12.80
2023-04-14T19:29:47.262Z,12.70
2023-04-14T19:32:15.925Z,12.70
2023-04-14T19:34:44.020Z,12.60
2023-04-14T19:37:11.894Z,12.60
2023-04-14T19:39:39.720Z,12.60
2023-04-14T19:42:07.216Z,12.50
2023-04-14T19:44:35.509Z,12.50
2023-04-14T19:47:03.766Z,12.50
2023-04-14T19:49:32.489Z,12.50
2023-04-14T19:52:00.260Z,12.40
2023-04-14T19:54:30.345Z,12.40
2023-04-14T19:56:58.531Z,12.40
2023-04-14T19:59:26.914Z,12.30
2023-04-14T20:01:54.488Z,12.30
2023-04-14T20:04:24.369Z,12.30
2023-04-14T20:06:53.480Z,12.20
2023-04-14T20:09:22.180Z,12.20
2023-04-14T20:11:49.937Z,12.20
2023-04-14T20:14:18.365Z,12.20
2023-04-14T20:16:46.671Z,12.10
2023-04-14T20:19:14.852Z,12.00
2023-04-14T20:21:43.857Z,12.00
2023-04-14T20:24:11.927Z,12.00
2023-04-14T20:26:42.725Z,11.90
2023-04-14T20:29:11.167Z,11.90
2023-04-14T20:31:39.777Z,11.90
2023-04-14T20:34:07.975Z,11.90
2023-04-14T20:36:36.237Z,11.80
2023-04-14T20:39:06.029Z,11.70
2023-04-14T20:41:34.923Z,11.80
2023-04-14T20:44:04.596Z,11.70
2023-04-14T20:46:32.934Z,11.70
2023-04-14T20:49:02.654Z,11.60
2023-04-14T20:51:32.471Z,11.60
2023-04-14T20:54:01.258Z,11.50
2023-04-14T20:56:30.953Z,11.50
2023-04-14T20:58:58.991Z,11.50
2023-04-14T21:01:28.023Z,11.50
2023-04-14T21:03:56.428Z,11.50
2023-04-14T21:06:23.911Z,11.40
2023-04-14T21:08:51.629Z,11.30
2023-04-14T21:11:18.983Z,11.30
2023-04-14T21:15:27.050Z,11.70
2023-04-14T21:16:34.757Z,11.30
2023-04-14T21:19:03.933Z,11.30
2023-04-14T21:21:31.925Z,11.30
2023-04-14T21:23:59.488Z,11.30
2023-04-14T21:26:28.658Z,11.20
2023-04-14T21:28:56.706Z,11.20
2023-04-14T21:31:24.026Z,11.30
2023-04-14T21:33:51.789Z,11.20
2023-04-14T21:36:19.920Z,11.10
2023-04-14T21:38:48.120Z,11.10
2023-04-14T21:41:16.048Z,11.00
2023-04-14T21:43:43.540Z,11.00
2023-04-14T21:46:10.595Z,10.90
2023-04-14T21:48:38.031Z,10.90
2023-04-14T21:51:05.127Z,11.60
2023-04-14T21:53:32.809Z,11.90
2023-04-14T21:56:09.121Z,10.80
2023-04-14T21:58:40.278Z,10.80
2023-04-14T22:01:08.046Z,10.80
2023-04-14T22:03:37.586Z,10.80
2023-04-14T22:06:05.069Z,10.70
2023-04-14T22:08:32.826Z,10.70
2023-04-14T22:10:59.955Z,10.70
2023-04-14T22:13:27.516Z,10.60
2023-04-14T22:15:55.209Z,10.50
2023-04-14T22:18:24.098Z,10.50
2023-04-14T22:20:51.381Z,10.50
2023-04-14T22:23:18.968Z,10.50
2023-04-14T22:25:47.934Z,10.40
2023-04-14T22:28:15.244Z,10.40
2023-04-14T22:30:42.499Z,10.40
2023-04-14T22:33:10.107Z,10.30
2023-04-14T22:35:37.293Z,10.30
2023-04-14T22:38:04.761Z,10.30
2023-04-14T22:40:32.264Z,10.30
2023-04-14T22:42:59.541Z,10.30
2023-04-14T22:45:26.588Z,11.80
2023-04-14T22:47:53.957Z,10.20
2023-04-14T22:50:21.042Z,10.20
2023-04-14T22:52:48.553Z,10.20
2023-04-14T22:55:15.694Z,10.10
2023-04-14T22:57:43.015Z,10.00
2023-04-14T23:00:11.676Z,10.30
2023-04-14T23:02:41.242Z,10.00
2023-04-14T23:05:10.590Z,9.90
2023-04-14T23:07:38.067Z,9.90
2023-04-14T23:10:08.496Z,9.80
2023-04-14T23:12:36.328Z,9.80
2023-04-14T23:15:04.509Z,9.80
2023-04-14T23:17:34.140Z,9.80
2023-04-14T23:20:02.402Z,9.80
2023-04-14T23:22:29.746Z,10.10
2023-04-14T23:24:56.841Z,9.70
2023-04-14T23:27:24.165Z,10.40
2023-04-14T23:29:51.337Z,9.70
2023-04-14T23:32:18.685Z,9.60
2023-04-14T23:34:45.943Z,9.60
2023-04-14T23:37:13.335Z,10.10
2023-04-14T23:39:40.738Z,9.60
2023-04-14T23:42:08.629Z,9.50
2023-04-14T23:44:35.702Z,9.40
2023-04-14T23:47:03.342Z,9.50
2023-04-14T23:49:34.246Z,9.50
2023-04-14T23:52:04.192Z,9.40
2023-04-14T23:54:31.837Z,10.50
2023-04-14T23:56:59.299Z,11.10
2023-04-14T23:59:27.158Z,9.40
